X  Sluiten METAR luchtvaart weer gegevens      EHRD Rotterdam The Hague Airport
Temperatuur
15°C Temperatuur
13°C Dauwpunt
88% Vochtigheid



Wind
5 KM/U
3 MPH
1 M/S
3 KTS



200°
ZZW
Huidig weer

Helder Helder
Luchtdruk 1013.88 (hPa) - 29.94 (inHg)
Zicht 6 (mijl) - 9.7 (km)
Vliegveld
Vliegveld code EHRD

Locatie : Rotterdam The Hague Airport
Afstand: 23 (km)

Metar:
EHRD 220355Z AUTO 20003KT 9999 NSC 15/13 Q1014 NOSIG

Tijd: 22-07-2024 05:55 CEST